createdAt,value
2022-11-09T00:01:47.833Z,0.50
2022-11-09T00:04:17.285Z,0.50
2022-11-09T00:06:46.795Z,0.40
2022-11-09T00:09:16.259Z,0.50
2022-11-09T00:11:45.685Z,0.40
2022-11-09T00:14:17.444Z,0.30
2022-11-09T00:16:46.884Z,0.50
2022-11-09T00:19:16.410Z,0.30
2022-11-09T00:21:45.846Z,0.50
2022-11-09T00:24:15.361Z,0.40
2022-11-09T00:26:44.805Z,0.47
2022-11-09T00:29:14.245Z,0.50
2022-11-09T00:31:43.692Z,0.37
2022-11-09T00:34:13.130Z,0.50
2022-11-09T00:36:42.711Z,0.70
2022-11-09T00:39:12.155Z,0.83
2022-11-09T00:41:41.597Z,0.30
2022-11-09T00:44:11.055Z,0.50
2022-11-09T00:46:40.560Z,0.40
2022-11-09T00:49:09.999Z,0.50
2022-11-09T00:51:39.446Z,0.70
2022-11-09T00:54:09.857Z,0.53
2022-11-09T00:56:39.296Z,0.50
2022-11-09T00:59:10.275Z,0.40
2022-11-09T01:01:39.760Z,0.53
2022-11-09T01:04:09.240Z,0.60
2022-11-09T01:06:38.723Z,0.40
2022-11-09T01:09:08.202Z,0.80
2022-11-09T01:11:38.004Z,0.37
2022-11-09T01:14:07.460Z,0.47
2022-11-09T01:16:37.463Z,0.40
2022-11-09T01:19:07.007Z,0.53
2022-11-09T01:21:36.514Z,0.40
2022-11-09T01:24:06.677Z,0.37
2022-11-09T01:26:36.111Z,0.40
2022-11-09T01:29:05.568Z,0.43
2022-11-09T01:31:35.080Z,0.50
2022-11-09T01:34:04.592Z,0.43
2022-11-09T01:36:34.024Z,0.90
2022-11-09T01:39:03.478Z,0.57
2022-11-09T01:41:32.913Z,0.90
2022-11-09T01:44:20.443Z,0.60
2022-11-09T01:47:09.475Z,0.47
2022-11-09T01:49:52.416Z,0.40
2022-11-09T01:52:35.492Z,0.37
2022-11-09T01:55:09.553Z,0.50
2022-11-09T01:57:43.930Z,0.40
2022-11-09T02:00:17.143Z,0.40
2022-11-09T02:03:12.320Z,0.40
2022-11-09T02:05:43.784Z,0.40
2022-11-09T02:08:17.994Z,0.40
2022-11-09T02:10:57.907Z,0.20
2022-11-09T02:13:30.274Z,0.40
2022-11-09T02:16:01.123Z,0.20
2022-11-09T02:18:32.485Z,0.30
2022-11-09T02:21:01.936Z,0.40
2022-11-09T02:23:31.861Z,0.30
2022-11-09T02:26:11.534Z,0.30
2022-11-09T02:28:43.194Z,0.30
2022-11-09T02:31:16.653Z,0.40
2022-11-09T02:34:05.746Z,0.40
2022-11-09T02:36:35.935Z,0.30
2022-11-09T02:39:06.881Z,0.50
2022-11-09T02:41:40.929Z,0.33
2022-11-09T02:44:11.316Z,0.37
2022-11-09T02:46:40.752Z,0.30
2022-11-09T02:49:10.205Z,0.30
2022-11-09T02:51:39.787Z,0.30
2022-11-09T02:54:09.572Z,0.40
2022-11-09T02:56:39.016Z,0.50
2022-11-09T02:59:09.032Z,0.40
2022-11-09T03:01:38.539Z,0.73
2022-11-09T03:04:08.190Z,0.50
2022-11-09T03:06:37.686Z,0.30
2022-11-09T03:09:10.663Z,0.40
2022-11-09T03:11:42.701Z,0.30
2022-11-09T03:14:12.796Z,0.57
2022-11-09T03:16:46.482Z,0.37
2022-11-09T03:19:13.568Z,0.50
2022-11-09T03:21:43.002Z,0.80
2022-11-09T03:24:12.460Z,0.70
2022-11-09T03:26:41.895Z,0.67
2022-11-09T03:29:11.360Z,0.57
2022-11-09T03:31:40.791Z,0.50
2022-11-09T03:34:10.248Z,0.60
2022-11-09T03:36:39.682Z,0.30
2022-11-09T03:39:09.141Z,0.30
2022-11-09T03:41:38.576Z,0.20
2022-11-09T03:44:08.167Z,0.40
2022-11-09T03:46:37.597Z,0.30
2022-11-09T03:49:07.053Z,0.40
2022-11-09T03:51:36.529Z,0.40
2022-11-09T03:54:06.167Z,0.40
2022-11-09T03:56:35.597Z,0.50
2022-11-09T03:59:05.122Z,0.53
2022-11-09T04:01:34.708Z,0.40
2022-11-09T04:04:04.205Z,0.43
2022-11-09T04:06:33.754Z,0.63
2022-11-09T04:09:03.269Z,0.60
2022-11-09T04:11:32.705Z,0.70
2022-11-09T04:14:02.296Z,0.57
2022-11-09T04:16:31.727Z,0.50
2022-11-09T04:19:01.186Z,0.50
2022-11-09T04:21:30.616Z,0.30
2022-11-09T04:24:00.084Z,0.50
2022-11-09T04:26:29.512Z,0.50
2022-11-09T04:28:59.237Z,0.50
2022-11-09T04:31:28.669Z,0.60
2022-11-09T04:33:58.201Z,0.47
2022-11-09T04:36:27.901Z,0.50
2022-11-09T04:38:57.441Z,0.50
2022-11-09T04:41:28.429Z,0.30
2022-11-09T04:43:57.886Z,0.43
2022-11-09T04:46:27.795Z,0.40
2022-11-09T04:48:57.317Z,0.30
2022-11-09T04:51:27.122Z,0.30
2022-11-09T04:53:56.644Z,0.50
2022-11-09T04:56:26.080Z,0.30
2022-11-09T04:58:55.530Z,0.43
2022-11-09T05:01:25.207Z,0.50
2022-11-09T05:03:54.757Z,0.37
2022-11-09T05:06:33.170Z,0.60
2022-11-09T05:09:07.023Z,0.57
2022-11-09T05:11:37.862Z,0.60
2022-11-09T05:14:07.384Z,0.53
2022-11-09T05:16:36.885Z,0.70
2022-11-09T05:19:06.368Z,0.50
2022-11-09T05:21:35.811Z,0.67
2022-11-09T05:24:05.397Z,0.50
2022-11-09T05:26:39.144Z,0.90
2022-11-09T05:29:14.539Z,0.70
2022-11-09T05:31:51.838Z,0.50
2022-11-09T05:34:16.865Z,0.90
2022-11-09T05:36:46.308Z,0.90
2022-11-09T05:39:15.760Z,0.53
2022-11-09T05:41:45.200Z,0.73
2022-11-09T05:44:14.659Z,0.87
2022-11-09T05:46:44.096Z,0.67
2022-11-09T05:49:13.579Z,0.90
2022-11-09T05:51:43.008Z,0.60
2022-11-09T05:54:12.537Z,0.60
2022-11-09T05:56:41.975Z,0.43
2022-11-09T05:59:11.428Z,0.53
2022-11-09T06:01:40.959Z,0.60
2022-11-09T06:04:10.397Z,0.53
2022-11-09T06:06:39.893Z,0.60
2022-11-09T06:09:09.433Z,0.53
2022-11-09T06:11:38.873Z,0.60
2022-11-09T06:14:08.325Z,0.50
2022-11-09T06:16:38.405Z,0.80
2022-11-09T06:19:07.864Z,1.30
2022-11-09T06:21:37.322Z,1.00
2022-11-09T06:24:07.073Z,1.30
2022-11-09T06:26:36.898Z,0.90
2022-11-09T06:29:06.647Z,0.90
2022-11-09T06:31:36.088Z,1.00
2022-11-09T06:34:05.538Z,0.80
2022-11-09T06:36:34.975Z,1.00
2022-11-09T06:39:04.491Z,0.80
2022-11-09T06:41:34.001Z,0.80
2022-11-09T06:44:05.395Z,1.53
2022-11-09T06:46:35.106Z,0.93
2022-11-09T06:49:04.553Z,1.00
2022-11-09T06:51:33.988Z,1.00
2022-11-09T06:54:03.672Z,0.90
2022-11-09T06:56:33.113Z,1.33
2022-11-09T06:59:02.564Z,1.30
2022-11-09T07:01:32.065Z,1.33
2022-11-09T07:04:02.095Z,1.10
2022-11-09T07:06:31.597Z,0.67
2022-11-09T07:09:01.130Z,0.90
2022-11-09T07:11:30.568Z,0.80
2022-11-09T07:14:01.283Z,0.93
2022-11-09T07:16:32.532Z,1.00
2022-11-09T07:19:02.020Z,1.37
2022-11-09T07:21:31.536Z,0.77
2022-11-09T07:24:00.980Z,0.73
2022-11-09T07:26:30.418Z,0.80
2022-11-09T07:28:59.869Z,0.60
2022-11-09T07:31:29.407Z,0.50
2022-11-09T07:34:00.476Z,0.70
2022-11-09T07:36:30.078Z,0.80
2022-11-09T07:39:00.041Z,0.80
2022-11-09T07:41:34.517Z,0.50
2022-11-09T07:44:00.660Z,0.50
2022-11-09T07:46:30.121Z,0.73
2022-11-09T07:48:59.578Z,0.70
2022-11-09T07:51:29.180Z,0.60
2022-11-09T07:53:58.746Z,0.90
2022-11-09T07:56:28.182Z,0.90
2022-11-09T07:58:57.687Z,0.90
2022-11-09T08:01:27.262Z,1.13
2022-11-09T08:03:56.889Z,1.27
2022-11-09T08:06:28.091Z,1.20
2022-11-09T08:08:57.904Z,1.30
2022-11-09T08:11:28.249Z,0.90
2022-11-09T08:13:57.772Z,0.90
2022-11-09T08:16:27.474Z,1.10
2022-11-09T08:18:56.933Z,0.90
2022-11-09T08:21:26.368Z,0.70
2022-11-09T08:23:55.825Z,0.80
2022-11-09T08:26:25.261Z,1.10
2022-11-09T08:28:55.823Z,0.60
2022-11-09T08:31:25.296Z,0.90
2022-11-09T08:33:54.822Z,0.97
2022-11-09T08:36:26.126Z,1.23
2022-11-09T08:38:55.582Z,1.10
2022-11-09T08:41:25.025Z,1.00
2022-11-09T08:43:54.480Z,0.80
2022-11-09T08:46:23.914Z,1.23
2022-11-09T08:48:53.365Z,0.83
2022-11-09T08:51:22.857Z,1.13
2022-11-09T08:53:52.265Z,0.90
2022-11-09T08:56:21.706Z,0.90
2022-11-09T08:58:51.171Z,0.87
2022-11-09T09:01:20.712Z,1.30
2022-11-09T09:03:50.156Z,0.80
2022-11-09T09:06:19.595Z,0.80
2022-11-09T09:08:49.068Z,0.73
2022-11-09T09:11:18.641Z,0.50
2022-11-09T09:13:48.098Z,0.50
2022-11-09T09:16:18.112Z,0.70
2022-11-09T09:18:49.844Z,0.80
2022-11-09T09:21:19.285Z,0.80
2022-11-09T09:23:51.740Z,0.90
2022-11-09T09:26:21.176Z,0.90
2022-11-09T09:28:52.001Z,0.80
2022-11-09T09:31:21.436Z,0.87
2022-11-09T09:33:50.959Z,0.80
2022-11-09T09:36:23.714Z,0.80
2022-11-09T09:38:55.077Z,0.57
2022-11-09T09:41:49.087Z,0.90
2022-11-09T09:44:46.524Z,1.00
2022-11-09T09:47:37.944Z,0.90
2022-11-09T09:50:23.888Z,1.17
2022-11-09T09:56:06.492Z,1.00
2022-11-09T09:58:39.930Z,0.90
2022-11-09T10:01:22.287Z,1.00
2022-11-09T10:03:52.812Z,0.70
2022-11-09T10:06:41.382Z,0.90
2022-11-09T10:09:34.773Z,0.80
2022-11-09T10:12:14.827Z,1.00
2022-11-09T10:15:24.198Z,1.10
2022-11-09T10:18:03.930Z,1.17
2022-11-09T10:21:26.503Z,1.50
2022-11-09T10:24:27.000Z,0.90
2022-11-09T10:27:02.054Z,1.50
2022-11-09T10:29:39.104Z,1.80
2022-11-09T10:32:24.655Z,1.40
2022-11-09T10:35:10.224Z,1.47
2022-11-09T10:37:44.513Z,0.90
2022-11-09T10:40:26.750Z,1.13
2022-11-09T10:43:06.938Z,0.90
2022-11-09T10:45:45.424Z,0.83
2022-11-09T10:48:16.219Z,0.93
2022-11-09T10:50:52.636Z,0.90
2022-11-09T10:53:28.934Z,1.00
2022-11-09T10:56:21.273Z,0.90
2022-11-09T10:58:52.301Z,0.93
2022-11-09T11:01:25.243Z,0.90
2022-11-09T11:03:57.424Z,0.83
2022-11-09T11:06:31.567Z,0.90
2022-11-09T11:09:08.593Z,0.80
2022-11-09T11:11:40.344Z,0.73
2022-11-09T11:14:35.045Z,0.70
2022-11-09T11:17:04.720Z,1.10
2022-11-09T11:19:42.294Z,0.87
2022-11-09T11:22:27.278Z,0.90
2022-11-09T11:25:03.063Z,0.80
2022-11-09T11:27:48.946Z,0.70
2022-11-09T11:30:27.109Z,0.57
2022-11-09T11:32:57.861Z,0.80
2022-11-09T11:35:46.501Z,0.70
2022-11-09T11:38:41.429Z,1.10
2022-11-09T11:41:38.147Z,1.00
2022-11-09T11:44:29.650Z,0.87
2022-11-09T11:47:26.091Z,0.80
2022-11-09T11:50:06.255Z,1.20
2022-11-09T11:52:54.746Z,0.80
2022-11-09T11:55:49.771Z,1.30
2022-11-09T11:59:18.801Z,1.20
2022-11-09T12:02:21.661Z,0.70
2022-11-09T12:05:21.035Z,0.80
2022-11-09T12:08:11.558Z,0.67
2022-11-09T12:11:08.168Z,0.60
2022-11-09T12:13:49.829Z,0.57
2022-11-09T12:16:48.456Z,0.70
2022-11-09T12:20:13.834Z,0.80
2022-11-09T12:23:25.096Z,0.60
2022-11-09T12:26:30.573Z,0.40
2022-11-09T12:29:19.229Z,0.40
2022-11-09T12:32:02.015Z,0.43
2022-11-09T12:34:41.348Z,0.53
2022-11-09T12:37:17.804Z,0.90
2022-11-09T12:39:53.964Z,0.60
2022-11-09T12:42:39.858Z,0.77
2022-11-09T12:45:35.443Z,0.80
2022-11-09T12:48:30.610Z,0.50
2022-11-09T12:51:03.653Z,0.50
2022-11-09T12:53:37.391Z,0.60
2022-11-09T12:56:19.949Z,0.33
2022-11-09T12:58:49.573Z,0.40
2022-11-09T13:01:38.682Z,0.40
2022-11-09T13:04:08.526Z,0.53
2022-11-09T13:06:38.045Z,0.37
2022-11-09T13:09:17.918Z,0.47
2022-11-09T13:11:51.031Z,0.50
2022-11-09T13:14:30.412Z,0.40
2022-11-09T13:17:23.701Z,0.40
2022-11-09T13:19:56.831Z,0.47
2022-11-09T13:22:30.863Z,0.33
2022-11-09T13:25:07.267Z,0.40
2022-11-09T13:27:50.225Z,0.30
2022-11-09T13:30:30.446Z,0.40
2022-11-09T13:33:27.783Z,0.40
2022-11-09T13:36:10.713Z,0.50
2022-11-09T13:38:40.703Z,0.57
2022-11-09T13:41:34.426Z,0.40
2022-11-09T13:44:26.696Z,0.23
2022-11-09T13:46:56.510Z,0.40
2022-11-09T13:49:39.540Z,0.70
2022-11-09T13:52:42.645Z,0.60
2022-11-09T13:55:28.570Z,0.60
2022-11-09T13:58:02.800Z,0.50
2022-11-09T14:00:32.659Z,0.40
2022-11-09T14:03:06.658Z,0.60
2022-11-09T14:05:39.372Z,0.50
2022-11-09T14:08:11.898Z,0.30
2022-11-09T14:11:11.779Z,0.40
2022-11-09T14:14:20.903Z,0.60
2022-11-09T14:17:18.818Z,0.70
2022-11-09T14:20:09.239Z,0.40
2022-11-09T14:22:37.683Z,0.33
2022-11-09T14:25:17.259Z,0.40
2022-11-09T14:27:55.318Z,0.60
2022-11-09T14:30:31.196Z,0.70
2022-11-09T14:33:01.016Z,0.30
2022-11-09T14:35:36.801Z,0.50
2022-11-09T14:38:20.279Z,0.40
2022-11-09T14:40:53.384Z,0.60
2022-11-09T14:43:45.037Z,0.40
2022-11-09T14:46:32.501Z,0.57
2022-11-09T14:49:04.968Z,0.23
2022-11-09T14:51:42.236Z,0.30
2022-11-09T14:54:16.237Z,0.50
2022-11-09T14:56:46.979Z,0.40
2022-11-09T14:59:24.175Z,0.43
2022-11-09T15:02:06.812Z,0.30
2022-11-09T15:05:01.738Z,0.47
2022-11-09T15:07:35.568Z,0.50
2022-11-09T15:10:12.257Z,0.30
2022-11-09T15:12:46.533Z,0.47
2022-11-09T15:15:26.520Z,0.53
2022-11-09T15:17:56.476Z,0.50
2022-11-09T15:20:34.088Z,0.60
2022-11-09T15:23:10.215Z,0.37
2022-11-09T15:25:51.537Z,0.40
2022-11-09T15:28:28.246Z,0.50
2022-11-09T15:31:05.857Z,0.50
2022-11-09T15:33:48.961Z,0.50
2022-11-09T15:36:38.929Z,0.60
2022-11-09T15:39:22.348Z,0.30
2022-11-09T15:41:51.807Z,0.40
2022-11-09T15:44:22.190Z,0.50
2022-11-09T15:46:54.424Z,0.40
2022-11-09T15:49:29.462Z,0.40
2022-11-09T15:51:58.929Z,0.40
2022-11-09T15:54:28.347Z,1.10
2022-11-09T15:56:57.787Z,1.37
2022-11-09T15:59:28.678Z,1.00
2022-11-09T16:01:58.203Z,1.80
2022-11-09T16:04:27.669Z,1.20
2022-11-09T16:06:57.162Z,1.23
2022-11-09T16:09:26.569Z,0.97
2022-11-09T16:11:56.029Z,1.00
2022-11-09T16:14:25.460Z,1.10
2022-11-09T16:16:54.912Z,0.80
2022-11-09T16:19:24.349Z,1.80
2022-11-09T16:21:55.512Z,1.20
2022-11-09T16:24:25.088Z,1.13
2022-11-09T16:26:56.088Z,1.67
2022-11-09T16:29:29.019Z,1.37
2022-11-09T16:31:58.480Z,1.70
2022-11-09T16:34:27.976Z,2.20
2022-11-09T16:36:57.727Z,1.60
2022-11-09T16:39:27.739Z,1.17
2022-11-09T16:41:57.186Z,1.13
2022-11-09T16:44:28.840Z,0.80
2022-11-09T16:46:58.459Z,0.80
2022-11-09T16:49:27.897Z,1.10
2022-11-09T16:51:57.338Z,3.10
2022-11-09T16:54:26.970Z,2.20
2022-11-09T16:56:56.400Z,1.97
2022-11-09T16:59:26.592Z,1.70
2022-11-09T17:02:00.775Z,1.60
2022-11-09T17:04:30.253Z,1.60
2022-11-09T17:06:59.748Z,0.97
2022-11-09T17:09:29.226Z,1.43
2022-11-09T17:11:58.660Z,1.33
2022-11-09T17:14:30.788Z,2.70
2022-11-09T17:17:00.222Z,4.33
2022-11-09T17:19:34.728Z,4.70
2022-11-09T17:22:04.609Z,3.43
2022-11-09T17:24:34.357Z,2.70
2022-11-09T17:27:03.787Z,1.90
2022-11-09T17:29:33.314Z,1.70
2022-11-09T17:32:02.752Z,1.30
2022-11-09T17:34:32.270Z,1.83
2022-11-09T17:37:05.031Z,1.60
2022-11-09T17:39:33.760Z,1.70
2022-11-09T17:42:03.191Z,1.10
2022-11-09T17:44:32.663Z,1.50
2022-11-09T17:47:02.367Z,1.60
2022-11-09T17:49:32.462Z,1.67
2022-11-09T17:52:01.913Z,1.93
2022-11-09T17:54:36.523Z,2.00
2022-11-09T17:57:02.629Z,1.17
2022-11-09T17:59:32.066Z,1.20
2022-11-09T18:02:01.532Z,1.25
2022-11-09T18:04:30.967Z,1.00
2022-11-09T18:07:00.508Z,1.00
2022-11-09T18:09:45.225Z,0.53
2022-11-09T18:12:01.114Z,0.63
2022-11-09T18:14:30.556Z,0.80
2022-11-09T18:17:01.592Z,0.40
2022-11-09T18:19:31.312Z,0.40
2022-11-09T18:22:02.983Z,0.50
2022-11-09T18:24:33.007Z,0.20
2022-11-09T18:27:02.525Z,0.30
2022-11-09T18:29:31.962Z,0.50
2022-11-09T18:32:01.412Z,0.60
2022-11-09T18:34:31.137Z,0.40
2022-11-09T18:37:00.595Z,1.50
2022-11-09T18:39:30.877Z,0.83
2022-11-09T18:42:01.912Z,0.83
2022-11-09T18:44:31.410Z,0.67
2022-11-09T18:47:05.318Z,0.40
2022-11-09T18:49:32.020Z,0.50
2022-11-09T18:52:01.670Z,0.33
2022-11-09T18:54:32.418Z,0.20
2022-11-09T18:57:01.867Z,0.40
2022-11-09T18:59:31.302Z,0.40
2022-11-09T19:02:00.934Z,0.30
2022-11-09T19:04:30.369Z,0.30
2022-11-09T19:06:59.897Z,0.40
2022-11-09T19:09:29.519Z,0.50
2022-11-09T19:12:00.809Z,0.30
2022-11-09T19:14:30.883Z,0.40
2022-11-09T19:17:00.412Z,0.40
2022-11-09T19:19:29.846Z,0.30
2022-11-09T19:21:59.683Z,0.28
2022-11-09T19:24:30.926Z,0.20
2022-11-09T19:27:01.449Z,0.30
2022-11-09T19:29:30.886Z,0.30
2022-11-09T19:32:00.340Z,0.30
2022-11-09T19:34:29.775Z,0.20
2022-11-09T19:36:59.371Z,0.40
2022-11-09T19:39:33.691Z,0.33
2022-11-09T19:42:00.108Z,0.30
2022-11-09T19:44:29.555Z,0.20
2022-11-09T19:46:59.377Z,0.20
2022-11-09T19:49:28.860Z,0.33
2022-11-09T19:51:58.322Z,0.37
2022-11-09T19:54:27.755Z,0.47
2022-11-09T19:56:57.355Z,0.50
2022-11-09T19:59:26.778Z,0.40
2022-11-09T20:01:56.232Z,0.30
2022-11-09T20:04:25.734Z,0.30
2022-11-09T20:06:55.376Z,0.50
2022-11-09T20:09:24.848Z,0.47
2022-11-09T20:12:11.869Z,0.40
2022-11-09T20:14:41.302Z,0.33
2022-11-09T20:17:10.755Z,0.50
2022-11-09T20:19:40.194Z,0.30
2022-11-09T20:22:09.719Z,0.50
2022-11-09T20:24:39.150Z,0.40
2022-11-09T20:27:08.870Z,0.33
2022-11-09T20:29:38.690Z,0.50
2022-11-09T20:32:12.017Z,0.50
2022-11-09T20:34:39.537Z,0.40
2022-11-09T20:37:08.994Z,0.70
2022-11-09T20:39:40.065Z,0.60
2022-11-09T20:42:10.092Z,0.50
2022-11-09T20:44:39.669Z,0.53
2022-11-09T20:47:09.602Z,0.70
2022-11-09T20:49:39.203Z,0.60
2022-11-09T20:52:08.652Z,0.50
2022-11-09T20:54:38.097Z,0.70
2022-11-09T20:57:07.543Z,0.77
2022-11-09T20:59:36.984Z,0.90
2022-11-09T21:02:06.498Z,0.50
2022-11-09T21:04:36.103Z,0.70
2022-11-09T21:07:05.592Z,0.53
2022-11-09T21:09:35.180Z,0.87
2022-11-09T21:12:24.574Z,0.80
2022-11-09T21:14:54.426Z,0.90
2022-11-09T21:17:23.879Z,1.00
2022-11-09T21:19:53.392Z,0.70
2022-11-09T21:22:22.837Z,0.83
2022-11-09T21:25:09.865Z,0.80
2022-11-09T21:27:57.489Z,0.93
2022-11-09T21:30:26.927Z,0.77
2022-11-09T21:32:57.099Z,0.70
2022-11-09T21:35:26.605Z,0.90
2022-11-09T21:38:00.280Z,0.80
2022-11-09T21:40:29.819Z,0.70
2022-11-09T21:42:59.250Z,0.70
2022-11-09T21:45:28.696Z,0.80
2022-11-09T21:47:58.152Z,0.60
2022-11-09T21:50:27.597Z,0.60
2022-11-09T21:52:57.102Z,0.40
2022-11-09T21:55:26.563Z,0.47
2022-11-09T21:57:55.990Z,0.70
2022-11-09T22:00:25.521Z,0.40
2022-11-09T22:02:54.957Z,0.40
2022-11-09T22:05:24.424Z,0.60
2022-11-09T22:07:54.899Z,0.60
2022-11-09T22:10:24.427Z,0.70
2022-11-09T22:13:11.634Z,0.40
2022-11-09T22:15:58.813Z,0.40
2022-11-09T22:18:50.261Z,0.40
2022-11-09T22:21:21.210Z,0.50
2022-11-09T22:23:51.051Z,0.30
2022-11-09T22:26:20.574Z,0.50
2022-11-09T22:28:50.004Z,0.50
2022-11-09T22:31:19.461Z,0.50
2022-11-09T22:33:48.968Z,0.50
2022-11-09T22:36:18.938Z,0.50
2022-11-09T22:38:48.640Z,0.47
2022-11-09T22:41:18.437Z,0.50
2022-11-09T22:43:47.870Z,0.40
2022-11-09T22:46:19.039Z,0.60
2022-11-09T22:48:48.545Z,0.57
2022-11-09T22:51:19.593Z,0.50
2022-11-09T22:53:53.056Z,0.60
2022-11-09T22:56:22.494Z,0.50
2022-11-09T22:58:53.896Z,0.50
2022-11-09T23:01:23.715Z,0.40
2022-11-09T23:03:53.698Z,0.40
2022-11-09T23:06:24.642Z,0.60
2022-11-09T23:08:54.084Z,0.60
2022-11-09T23:11:25.135Z,0.50
2022-11-09T23:13:56.494Z,0.40
2022-11-09T23:16:25.939Z,0.37
2022-11-09T23:18:55.956Z,0.50
2022-11-09T23:21:32.517Z,0.60
2022-11-09T23:24:06.007Z,0.67
2022-11-09T23:26:35.991Z,0.50
2022-11-09T23:29:05.810Z,0.40
2022-11-09T23:31:35.255Z,0.50
2022-11-09T23:34:09.764Z,0.50
2022-11-09T23:36:35.867Z,0.60
2022-11-09T23:39:05.307Z,0.40
2022-11-09T23:41:34.929Z,0.57
2022-11-09T23:44:04.372Z,0.50
2022-11-09T23:46:33.820Z,0.50
2022-11-09T23:49:03.329Z,0.57
2022-11-09T23:51:32.776Z,0.43
2022-11-09T23:54:02.216Z,0.30
2022-11-09T23:56:31.667Z,0.40
2022-11-09T23:59:01.107Z,0.40
